»·PEaware :: DAL2613 KSLC-KDEN

DAL2613 :: KSLC-KDEN

FLIGHT INFORMATION

Flight Status: Arrived
Operator:
Delta Air Lines
More flights by this operator :: More flights under this callsign
Pilot: Alfredo R. (12181)
Aircraft: BOEING 737-800
(B738)
More flights by this aircraft type
Origin: KSLC Salt Lake City Intl
United States
Destination: KDEN Denver Intl
United States
More flights between these airports :: More routes between these airports
Route: +RUGGD1 PERTY KAMPR LONGZ1
File this flight plan on PilotEdge
Remarks:
Altitude:
(Current/Filed)
390ft
Speed:
(Current/Filed)
425kts
Departed: 09-Aug-20 05:35 PM
Arrived: 09-Aug-20 06:43 PM
Distance/Time
Traveled:
339nm/1:07
Distance/Time
To Go:
Arrived

Flight Plot

Page will automatically refresh every two minutes.

Flight plan parsing failed; only flown route is shown


Map Options




Map Legend


Flown Route
Filed Route
Departure Airport
Arrival Airport
Navaid (VOR, NDB)
Fix

Horizontal Profiles

Position Reports

Time Latitude Longitude Heading Altitude Ground
Speed
09-Aug-20 16:49 40.789310 -111.985273 165 4237ft 0kts
09-Aug-20 16:50 40.789310 -111.985273 165 4237ft 0kts
09-Aug-20 16:51 40.789311 -111.985273 165 4237ft 0kts
09-Aug-20 16:52 40.789311 -111.985273 165 4237ft 0kts
09-Aug-20 16:53 40.789311 -111.985273 165 4237ft 0kts
09-Aug-20 16:54 40.789311 -111.985273 165 4237ft 0kts
09-Aug-20 16:55 40.789311 -111.985273 165 4237ft 0kts
09-Aug-20 16:56 40.789311 -111.985273 165 4237ft 0kts
09-Aug-20 16:57 40.789311 -111.985273 165 4237ft 0kts
09-Aug-20 16:58 40.789311 -111.985273 165 4237ft 0kts
09-Aug-20 16:59 40.789311 -111.985273 165 4237ft 0kts
09-Aug-20 17:00 40.789311 -111.985273 165 4237ft 0kts
09-Aug-20 17:01 40.789311 -111.985273 165 4237ft 0kts
09-Aug-20 17:03 40.789311 -111.985273 165 4237ft 0kts
09-Aug-20 17:04 40.789311 -111.985273 165 4237ft 0kts
09-Aug-20 17:05 40.789311 -111.985273 165 4237ft 0kts
09-Aug-20 17:06 40.789311 -111.985273 165 4237ft 0kts
09-Aug-20 17:07 40.789311 -111.985273 165 4237ft 0kts
09-Aug-20 17:08 40.789311 -111.985273 165 4237ft 0kts
09-Aug-20 17:09 40.789311 -111.985273 165 4237ft 0kts
09-Aug-20 17:10 40.789311 -111.985273 165 4237ft 0kts
09-Aug-20 17:11 40.789311 -111.985273 165 4237ft 0kts
09-Aug-20 17:12 40.789311 -111.985273 165 4237ft 0kts
09-Aug-20 17:13 40.789311 -111.985273 165 4237ft 0kts
09-Aug-20 17:14 40.789311 -111.985273 165 4237ft 0kts
09-Aug-20 17:15 40.789311 -111.985273 165 4237ft 0kts
09-Aug-20 17:16 40.789311 -111.985273 165 4237ft 0kts
09-Aug-20 17:17 40.789628 -111.985407 164 4237ft 2kts
09-Aug-20 17:18 40.789905 -111.985646 121 4237ft 2kts
09-Aug-20 17:19 40.789977 -111.985936 87 4237ft 0kts
09-Aug-20 17:20 40.789977 -111.985936 87 4237ft 0kts
09-Aug-20 17:21 40.789977 -111.985936 87 4237ft 0kts
09-Aug-20 17:21 40.789977 -111.985936 87 4237ft 0kts
09-Aug-20 17:23 40.790631 -111.985207 358 4237ft 7kts
09-Aug-20 17:23 40.790878 -111.985225 356 4237ft 0kts
09-Aug-20 17:24 40.790878 -111.985225 356 4237ft 0kts
09-Aug-20 17:26 40.791308 -111.988855 266 4237ft 15kts
09-Aug-20 17:26 40.791007 -111.993437 264 4237ft 14kts
09-Aug-20 17:27 40.787753 -111.994771 175 4237ft 20kts
09-Aug-20 17:28 40.782827 -111.994207 175 4237ft 16kts
09-Aug-20 17:29 40.777971 -111.994188 175 4237ft 14kts
09-Aug-20 17:30 40.775353 -111.994084 226 4237ft 0kts
09-Aug-20 17:31 40.775353 -111.994084 226 4237ft 0kts
09-Aug-20 17:32 40.775353 -111.994084 226 4237ft 0kts
09-Aug-20 17:33 40.775240 -111.995064 283 4237ft 7kts
09-Aug-20 17:34 40.781386 -111.996223 355 4237ft 90kts
09-Aug-20 17:35 40.823014 -112.000328 355 5221ft 175kts
09-Aug-20 17:36 40.875789 -112.009033 342 6534ft 221kts
09-Aug-20 17:37 40.922293 -112.071422 306 8130ft 269kts
09-Aug-20 17:38 40.971453 -112.156128 306 10433ft 313kts
09-Aug-20 17:39 41.029560 -112.255002 306 12779ft 348kts
09-Aug-20 17:40 41.091580 -112.357170 306 15911ft 356kts
09-Aug-20 17:41 41.174547 -112.416044 9 18454ft 376kts
09-Aug-20 17:42 41.242374 -112.316762 82 20803ft 398kts
09-Aug-20 17:43 41.203761 -112.182237 138 22911ft 412kts
09-Aug-20 17:44 41.114381 -112.086191 142 23147ft 410kts
09-Aug-20 17:45 41.027510 -111.989862 128 23850ft 417kts
09-Aug-20 17:46 41.005624 -111.843720 72 25534ft 424kts
09-Aug-20 17:47 41.053244 -111.700534 83 27178ft 433kts
09-Aug-20 17:48 41.011721 -111.553660 129 28550ft 447kts
09-Aug-20 17:49 40.933982 -111.423325 114 29815ft 455kts
09-Aug-20 17:50 40.899233 -111.268400 100 31163ft 456kts
09-Aug-20 17:51 40.876534 -111.107463 98 32688ft 451kts
09-Aug-20 17:52 40.856038 -110.944103 97 34037ft 449kts
09-Aug-20 17:53 40.836107 -110.781126 97 35265ft 447kts
09-Aug-20 17:54 40.816262 -110.619154 97 36437ft 444kts
09-Aug-20 17:55 40.796262 -110.457311 97 37342ft 445kts
09-Aug-20 17:56 40.776184 -110.296961 98 38158ft 445kts
09-Aug-20 17:57 40.755839 -110.135850 98 39004ft 445kts
09-Aug-20 17:58 40.738227 -109.972051 94 39140ft 454kts
09-Aug-20 17:59 40.727038 -109.806676 94 39118ft 447kts
09-Aug-20 18:00 40.715930 -109.641164 95 39119ft 454kts
09-Aug-20 18:01 40.705283 -109.485781 95 39119ft 458kts
09-Aug-20 18:02 40.693426 -109.319017 96 39114ft 450kts
09-Aug-20 18:03 40.681850 -109.155776 96 39123ft 456kts
09-Aug-20 18:04 40.669662 -108.986265 96 39118ft 459kts
09-Aug-20 18:05 40.658483 -108.817881 96 39119ft 452kts
09-Aug-20 18:06 40.647625 -108.656772 96 39133ft 457kts
09-Aug-20 18:07 40.636716 -108.487716 95 39135ft 459kts
09-Aug-20 18:08 40.625702 -108.324635 96 39142ft 455kts
09-Aug-20 18:09 40.615525 -108.175911 96 39218ft 465kts
09-Aug-20 18:10 40.603512 -108.004987 97 39209ft 464kts
09-Aug-20 18:11 40.591542 -107.835949 96 39211ft 459kts
09-Aug-20 18:12 40.579248 -107.667614 97 39213ft 466kts
09-Aug-20 18:13 40.565310 -107.497096 97 39209ft 466kts
09-Aug-20 18:14 40.552653 -107.334258 97 39215ft 448kts
09-Aug-20 18:15 40.540195 -107.172321 97 38172ft 466kts
09-Aug-20 18:16 40.527258 -107.007972 97 36193ft 452kts
09-Aug-20 18:17 40.514510 -106.847310 97 34283ft 443kts
09-Aug-20 18:18 40.501275 -106.684626 96 32481ft 453kts
09-Aug-20 18:19 40.487791 -106.522395 97 30683ft 446kts
09-Aug-20 18:20 40.472546 -106.361042 97 28891ft 450kts
09-Aug-20 18:21 40.457841 -106.199857 98 27114ft 453kts
09-Aug-20 18:22 40.443620 -106.040412 98 25303ft 429kts
09-Aug-20 18:23 40.428975 -105.892198 103 23536ft 408kts
09-Aug-20 18:24 40.406796 -105.750211 103 21872ft 400kts
09-Aug-20 18:25 40.385050 -105.612754 102 20290ft 369kts
09-Aug-20 18:26 40.365205 -105.489440 101 19056ft 346kts
09-Aug-20 18:27 40.345238 -105.365515 101 17845ft 340kts
09-Aug-20 18:28 40.328799 -105.244331 100 16639ft 333kts
09-Aug-20 18:29 40.313652 -105.132353 99 15419ft 291kts
09-Aug-20 18:30 40.299802 -105.031064 99 14199ft 272kts
09-Aug-20 18:31 40.286245 -104.932738 100 12988ft 268kts
09-Aug-20 18:32 40.272960 -104.837051 100 11809ft 263kts
09-Aug-20 18:33 40.256381 -104.747902 114 10822ft 238kts
09-Aug-20 18:34 40.214201 -104.687392 166 9884ft 230kts
09-Aug-20 18:35 40.151867 -104.684071 180 9166ft 227kts
09-Aug-20 18:36 40.093867 -104.684550 181 8430ft 201kts
09-Aug-20 18:37 40.040624 -104.685167 181 7778ft 187kts
09-Aug-20 18:38 39.991417 -104.685739 178 7094ft 159kts
09-Aug-20 18:39 39.948106 -104.686251 178 6356ft 154kts
09-Aug-20 18:40 39.905604 -104.686708 178 5538ft 154kts
09-Aug-20 18:41 39.878090 -104.687015 180 5333ft 50kts
09-Aug-20 18:42 39.872515 -104.685937 148 5347ft 0kts
09-Aug-20 18:43 39.870337 -104.684938 180 5349ft 20kts
09-Aug-20 18:44 39.866125 -104.683844 180 5337ft 20kts
09-Aug-20 18:45 39.860538 -104.683909 180 5333ft 15kts
09-Aug-20 18:46 39.855059 -104.683967 179 5330ft 18kts
09-Aug-20 18:47 39.852797 -104.681079 97 5343ft 15kts
09-Aug-20 18:48 39.853158 -104.678312 51 5364ft 1kts
09-Aug-20 18:49 39.853319 -104.678021 54 5366ft 0kts
09-Aug-20 18:50 39.853319 -104.678021 54 5366ft 0kts
09-Aug-20 18:51 39.853319 -104.678021 54 5366ft 0kts
09-Aug-20 18:52 39.853319 -104.678021 54 5366ft 0kts
09-Aug-20 18:53 39.853319 -104.678021 54 5366ft 0kts

Navigation Log

Ident Type
Flight plan parsing failed, navigation log unavailable